createdAt,value
2019-04-22T00:02:22.404Z,80.80
2019-04-22T00:05:05.741Z,80.80
2019-04-22T00:07:58.108Z,81.20
2019-04-22T00:10:32.734Z,81.10
2019-04-22T00:12:59.789Z,81.20
2019-04-22T00:15:27.244Z,81.40
2019-04-22T00:18:13.284Z,81.50
2019-04-22T00:20:43.935Z,81.90
2019-04-22T00:23:12.842Z,82.20
2019-04-22T00:25:52.852Z,82.40
2019-04-22T00:28:25.016Z,82.70
2019-04-22T00:30:54.803Z,83.10
2019-04-22T00:33:31.355Z,83.30
2019-04-22T00:36:06.458Z,84.40
2019-04-22T00:38:38.398Z,84.80
2019-04-22T00:41:13.148Z,85.00
2019-04-22T00:43:45.830Z,84.60
2019-04-22T00:46:11.119Z,85.30
2019-04-22T00:49:07.138Z,84.70
2019-04-22T00:51:23.924Z,84.30
2019-04-22T00:53:46.774Z,84.60
2019-04-22T00:56:24.398Z,84.90
2019-04-22T00:58:50.505Z,85.20
2019-04-22T01:01:26.602Z,85.10
2019-04-22T01:04:05.562Z,85.30
2019-04-22T01:06:35.875Z,86.10
2019-04-22T01:09:07.128Z,86.60
2019-04-22T01:11:33.473Z,86.70
2019-04-22T01:14:09.106Z,86.50
2019-04-22T01:16:47.138Z,86.20
2019-04-22T01:19:16.668Z,86.50
2019-04-22T01:21:44.771Z,86.40
2019-04-22T01:24:17.806Z,86.60
2019-04-22T01:26:43.568Z,86.60
2019-04-22T01:29:10.960Z,86.70
2019-04-22T01:31:37.169Z,86.20
2019-04-22T01:34:23.412Z,85.90
2019-04-22T01:36:57.792Z,85.10
2019-04-22T01:39:37.748Z,85.80
2019-04-22T01:42:05.678Z,85.60
2019-04-22T01:44:40.558Z,85.10
2019-04-22T01:47:19.923Z,84.80
2019-04-22T01:49:46.114Z,84.70
2019-04-22T01:52:17.043Z,84.40
2019-04-22T01:55:12.255Z,84.20
2019-04-22T01:57:27.047Z,84.10
2019-04-22T01:59:51.542Z,84.00
2019-04-22T02:02:30.483Z,84.10
2019-04-22T02:05:04.588Z,83.90
2019-04-22T02:07:34.405Z,83.80
2019-04-22T02:10:12.360Z,83.20
2019-04-22T02:15:16.980Z,84.20
2019-04-22T02:18:10.674Z,84.20
2019-04-22T02:20:16.881Z,84.20
2019-04-22T02:23:30.542Z,84.20
2019-04-22T02:25:50.990Z,84.30
2019-04-22T02:28:26.034Z,84.20
2019-04-22T02:43:51.427Z,85.00
2019-04-22T02:51:26.253Z,85.90
2019-04-22T02:59:03.858Z,88.00
2019-04-22T03:01:39.877Z,87.90
2019-04-22T03:04:04.387Z,87.60
2019-04-22T03:14:12.691Z,87.90
2019-04-22T03:19:43.350Z,88.70
2019-04-22T03:21:46.654Z,88.80
2019-04-22T03:24:25.743Z,89.10
2019-04-22T03:30:33.290Z,89.80
2019-04-22T03:35:31.508Z,90.10
2019-04-22T03:37:49.153Z,90.10
2019-04-22T03:45:28.419Z,90.50
2019-04-22T04:08:14.616Z,91.20
2019-04-22T04:15:38.362Z,91.10
2019-04-22T04:18:18.783Z,91.50
2019-04-22T04:21:00.656Z,91.40
2019-04-22T04:25:54.302Z,91.60
2019-04-22T04:31:09.973Z,91.90
2019-04-22T04:33:38.971Z,92.00
2019-04-22T04:36:11.529Z,92.10
2019-04-22T04:38:46.130Z,91.90
2019-04-22T04:41:26.642Z,92.00
2019-04-22T04:43:52.892Z,92.00
2019-04-22T04:46:24.817Z,92.10
2019-04-22T04:51:38.095Z,92.20
2019-04-22T04:54:05.665Z,92.40
2019-04-22T04:56:40.289Z,92.60
2019-04-22T05:06:42.979Z,94.00
2019-04-22T05:09:16.810Z,93.90
2019-04-22T05:12:02.852Z,94.10
2019-04-22T05:14:17.269Z,94.50
2019-04-22T05:16:51.543Z,94.70
2019-04-22T05:19:18.318Z,94.60
2019-04-22T05:21:50.529Z,94.70
2019-04-22T05:24:22.736Z,94.60
2019-04-22T05:29:34.337Z,94.80
2019-04-22T05:34:40.157Z,94.90
2019-04-22T05:37:01.296Z,95.00
2019-04-22T05:39:33.952Z,95.00
2019-04-22T05:44:43.475Z,94.90
2019-04-22T05:47:11.331Z,94.90
2019-04-22T05:49:34.762Z,95.00
2019-04-22T05:52:17.246Z,95.20
2019-04-22T05:54:53.235Z,95.20
2019-04-22T05:57:18.011Z,94.90
2019-04-22T05:59:52.177Z,94.70
2019-04-22T06:02:31.392Z,94.60
2019-04-22T06:05:00.315Z,94.80
2019-04-22T06:07:26.567Z,95.00
2019-04-22T06:10:06.673Z,94.90
2019-04-22T06:12:26.500Z,95.00
2019-04-22T06:15:10.130Z,95.00
2019-04-22T06:17:48.593Z,94.90
2019-04-22T06:20:15.391Z,94.90
2019-04-22T06:22:50.825Z,94.80
2019-04-22T06:25:27.671Z,94.80
2019-04-22T06:27:57.609Z,94.80
2019-04-22T06:30:46.651Z,94.80
2019-04-22T06:33:08.466Z,94.80
2019-04-22T06:38:26.399Z,94.70
2019-04-22T06:40:41.860Z,94.60
2019-04-22T06:45:41.587Z,94.70
2019-04-22T06:50:54.719Z,94.50
2019-04-22T06:53:24.604Z,94.70
2019-04-22T06:56:10.976Z,94.70
2019-04-22T06:58:28.900Z,94.30
2019-04-22T07:01:07.611Z,94.10
2019-04-22T07:03:45.264Z,93.90
2019-04-22T07:06:26.186Z,93.90
2019-04-22T07:09:09.378Z,93.60
2019-04-22T07:11:06.276Z,93.40
2019-04-22T07:14:01.885Z,93.60
2019-04-22T07:16:21.486Z,93.30
2019-04-22T07:18:48.458Z,93.00
2019-04-22T07:21:24.307Z,92.30
2019-04-22T07:24:03.135Z,90.70
2019-04-22T07:26:29.065Z,87.80
2019-04-22T07:28:55.091Z,83.80
2019-04-22T07:31:49.607Z,83.40
2019-04-22T07:34:08.221Z,82.50
2019-04-22T07:39:10.837Z,83.80
2019-04-22T07:41:43.174Z,85.80
2019-04-22T07:46:54.780Z,88.80
2019-04-22T07:49:18.820Z,87.70
2019-04-22T07:51:49.469Z,85.60
2019-04-22T07:54:22.166Z,82.40
2019-04-22T07:57:02.575Z,82.60
2019-04-22T07:59:30.831Z,85.20
2019-04-22T08:01:55.788Z,85.60
2019-04-22T08:04:49.465Z,82.40
2019-04-22T08:07:10.695Z,77.80
2019-04-22T08:09:44.605Z,72.70
2019-04-22T08:12:02.623Z,72.00
2019-04-22T08:14:42.274Z,71.70
2019-04-22T08:17:38.817Z,72.20
2019-04-22T08:19:50.654Z,74.30
2019-04-22T08:22:14.368Z,75.10
2019-04-22T08:24:47.236Z,78.20
2019-04-22T08:27:22.496Z,79.20
2019-04-22T08:30:08.598Z,79.00
2019-04-22T08:32:28.217Z,80.40
2019-04-22T08:34:55.410Z,80.70
2019-04-22T08:40:17.020Z,81.90
2019-04-22T08:42:55.561Z,82.50
2019-04-22T08:45:18.738Z,84.30
2019-04-22T08:47:42.252Z,84.60
2019-04-22T08:50:16.464Z,83.90
2019-04-22T08:52:54.873Z,84.60
2019-04-22T08:55:28.967Z,83.80
2019-04-22T08:58:14.974Z,84.30
2019-04-22T09:00:29.261Z,83.70
2019-04-22T09:02:59.506Z,82.80
2019-04-22T09:06:02.417Z,82.60
2019-04-22T09:08:14.232Z,81.20
2019-04-22T09:13:05.797Z,79.40
2019-04-22T09:15:46.732Z,75.90
2019-04-22T09:18:23.232Z,74.80
2019-04-22T09:20:49.649Z,72.50
2019-04-22T09:23:28.430Z,71.10
2019-04-22T09:25:53.236Z,70.90
2019-04-22T09:28:34.535Z,70.90
2019-04-22T09:31:01.917Z,72.50
2019-04-22T09:33:32.191Z,73.50
2019-04-22T09:36:12.833Z,73.40
2019-04-22T09:38:39.555Z,72.00
2019-04-22T09:41:14.172Z,72.30
2019-04-22T09:43:47.097Z,73.30
2019-04-22T09:46:19.761Z,74.20
2019-04-22T09:48:55.389Z,74.40
2019-04-22T09:51:23.230Z,74.40
2019-04-22T09:56:27.318Z,73.20
2019-04-22T09:58:59.358Z,71.40
2019-04-22T10:01:27.896Z,72.80
2019-04-22T10:04:03.705Z,68.70
2019-04-22T10:14:24.789Z,66.70
2019-04-22T10:16:43.762Z,66.40
2019-04-22T10:22:02.937Z,67.80
2019-04-22T10:24:16.662Z,67.60
2019-04-22T10:27:02.118Z,67.30
2019-04-22T10:29:42.057Z,67.80
2019-04-22T10:31:55.555Z,67.70
2019-04-22T10:34:19.177Z,67.70
2019-04-22T10:36:37.834Z,67.40
2019-04-22T10:39:10.572Z,66.50
2019-04-22T10:41:41.745Z,67.00
2019-04-22T10:44:13.004Z,67.10
2019-04-22T10:46:44.364Z,67.10
2019-04-22T10:49:15.975Z,68.40
2019-04-22T10:51:48.698Z,66.00
2019-04-22T10:54:19.807Z,64.10
2019-04-22T10:56:50.847Z,65.30
2019-04-22T10:59:22.677Z,65.50
2019-04-22T11:01:54.825Z,64.60
2019-04-22T11:04:28.050Z,64.40
2019-04-22T11:07:03.755Z,65.60
2019-04-22T11:09:34.102Z,65.80
2019-04-22T11:12:11.910Z,65.20
2019-04-22T11:14:38.583Z,64.20
2019-04-22T11:17:11.413Z,62.80
2019-04-22T11:19:43.623Z,63.50
2019-04-22T11:22:20.720Z,65.60
2019-04-22T11:24:46.694Z,64.00
2019-04-22T11:27:18.899Z,63.20
2019-04-22T11:29:49.816Z,63.10
2019-04-22T11:32:20.423Z,65.10
2019-04-22T11:34:51.319Z,66.40
2019-04-22T11:37:24.836Z,65.00
2019-04-22T11:40:06.822Z,63.60
2019-04-22T11:42:28.238Z,62.20
2019-04-22T11:44:59.332Z,62.30
2019-04-22T11:47:31.329Z,60.60
2019-04-22T11:50:02.118Z,61.60
2019-04-22T11:52:35.062Z,61.10
2019-04-22T11:55:08.705Z,61.90
2019-04-22T11:57:41.362Z,62.30
2019-04-22T12:00:16.787Z,62.50
2019-04-22T12:02:49.223Z,61.40
2019-04-22T12:05:21.756Z,60.00
2019-04-22T12:07:55.087Z,59.70
2019-04-22T12:10:34.771Z,60.60
2019-04-22T12:12:59.855Z,61.30
2019-04-22T12:15:31.168Z,62.10
2019-04-22T12:18:03.734Z,60.50
2019-04-22T12:20:35.039Z,59.80
2019-04-22T12:23:07.375Z,60.20
2019-04-22T12:25:47.623Z,60.40
2019-04-22T12:28:13.091Z,59.80
2019-04-22T12:30:43.831Z,60.10
2019-04-22T12:33:14.968Z,60.70
2019-04-22T12:35:46.410Z,61.00
2019-04-22T12:38:20.747Z,60.20
2019-04-22T12:40:58.462Z,60.80
2019-04-22T12:43:26.451Z,61.00
2019-04-22T12:45:58.273Z,60.20
2019-04-22T12:48:31.006Z,61.00
2019-04-22T12:51:02.937Z,60.70
2019-04-22T12:53:33.946Z,62.10
2019-04-22T12:56:05.120Z,62.10
2019-04-22T12:58:38.010Z,61.10
2019-04-22T13:01:09.011Z,60.90
2019-04-22T13:03:40.243Z,60.40
2019-04-22T13:06:11.994Z,62.20
2019-04-22T13:08:43.955Z,62.50
2019-04-22T13:11:18.515Z,62.10
2019-04-22T13:13:47.090Z,61.80
2019-04-22T13:16:18.001Z,62.30
2019-04-22T13:18:55.651Z,63.20
2019-04-22T13:21:22.778Z,63.40
2019-04-22T13:23:54.792Z,63.40
2019-04-22T13:26:27.167Z,64.10
2019-04-22T13:29:01.033Z,63.80
2019-04-22T13:31:33.064Z,63.30
2019-04-22T13:34:04.204Z,63.30
2019-04-22T13:36:36.631Z,62.80
2019-04-22T13:39:09.049Z,62.70
2019-04-22T13:41:46.410Z,62.10
2019-04-22T13:44:12.789Z,62.40
2019-04-22T13:47:04.091Z,61.90
2019-04-22T13:49:49.495Z,62.20
2019-04-22T13:52:24.522Z,61.50
2019-04-22T13:57:12.111Z,61.10
2019-04-22T13:59:36.196Z,62.70
2019-04-22T14:01:58.897Z,62.30
2019-04-22T14:04:34.727Z,62.00
2019-04-22T14:07:07.170Z,62.60
2019-04-22T14:09:38.218Z,61.70
2019-04-22T14:12:11.466Z,61.10
2019-04-22T14:14:42.807Z,60.70
2019-04-22T14:17:14.658Z,60.20
2019-04-22T14:19:46.511Z,61.10
2019-04-22T14:22:17.823Z,62.00
2019-04-22T14:24:48.810Z,61.70
2019-04-22T14:27:31.755Z,62.00
2019-04-22T14:29:53.885Z,63.10
2019-04-22T14:32:28.006Z,63.20
2019-04-22T14:34:57.327Z,62.80
2019-04-22T14:37:32.046Z,63.10
2019-04-22T14:40:07.083Z,63.70
2019-04-22T14:42:56.454Z,63.80
2019-04-22T14:45:42.026Z,64.10
2019-04-22T14:48:07.650Z,65.10
2019-04-22T14:50:35.147Z,64.90
2019-04-22T14:53:08.125Z,65.10
2019-04-22T14:55:25.947Z,65.00
2019-04-22T14:57:56.969Z,66.00
2019-04-22T15:00:29.486Z,66.40
2019-04-22T15:03:01.588Z,66.90
2019-04-22T15:05:32.307Z,67.20
2019-04-22T15:08:06.822Z,67.80
2019-04-22T15:10:38.165Z,68.10
2019-04-22T15:13:09.540Z,68.10
2019-04-22T15:15:52.795Z,68.50
2019-04-22T15:18:28.712Z,68.60
2019-04-22T15:21:00.869Z,68.90
2019-04-22T15:23:32.812Z,70.20
2019-04-22T15:26:04.569Z,70.20
2019-04-22T15:28:37.466Z,70.50
2019-04-22T15:31:09.171Z,70.70
2019-04-22T15:33:41.674Z,71.30
2019-04-22T15:36:14.072Z,71.50
2019-04-22T15:38:47.195Z,71.70
2019-04-22T15:41:18.799Z,72.20
2019-04-22T15:43:49.856Z,72.70
2019-04-22T15:46:20.609Z,72.70
2019-04-22T15:48:53.726Z,73.20
2019-04-22T15:51:24.715Z,73.80
2019-04-22T15:53:55.816Z,73.80
2019-04-22T15:56:32.991Z,74.30
2019-04-22T15:59:17.242Z,75.00
2019-04-22T16:01:40.640Z,75.70
2019-04-22T16:04:08.437Z,76.60
2019-04-22T16:06:41.117Z,76.90
2019-04-22T16:09:13.206Z,77.40
2019-04-22T16:11:45.827Z,77.80
2019-04-22T16:14:25.531Z,78.30
2019-04-22T16:17:10.492Z,78.40
2019-04-22T16:19:41.326Z,79.00
2019-04-22T16:22:16.818Z,79.10
2019-04-22T16:24:50.229Z,79.30
2019-04-22T16:27:26.556Z,79.40
2019-04-22T16:29:57.362Z,79.30
2019-04-22T16:32:29.880Z,79.40
2019-04-22T16:35:00.861Z,79.80
2019-04-22T16:37:34.742Z,80.00
2019-04-22T16:40:07.327Z,80.10
2019-04-22T16:42:47.330Z,80.80
2019-04-22T16:45:11.650Z,80.70
2019-04-22T16:47:45.794Z,81.10
2019-04-22T16:50:18.162Z,81.70
2019-04-22T16:52:50.100Z,81.70
2019-04-22T16:55:21.176Z,82.20
2019-04-22T16:57:54.569Z,82.40
2019-04-22T17:00:26.962Z,82.10
2019-04-22T17:03:06.734Z,82.30
2019-04-22T17:05:55.960Z,82.20
2019-04-22T17:08:28.721Z,81.80
2019-04-22T17:10:59.853Z,81.80
2019-04-22T17:13:32.814Z,81.70
2019-04-22T17:16:04.741Z,81.70
2019-04-22T17:18:37.080Z,82.20
2019-04-22T17:21:09.178Z,82.30
2019-04-22T17:23:41.394Z,82.60
2019-04-22T17:26:12.600Z,82.80
2019-04-22T17:28:45.830Z,83.40
2019-04-22T17:31:16.780Z,83.50
2019-04-22T17:33:48.733Z,83.70
2019-04-22T17:36:20.246Z,83.90
2019-04-22T17:39:01.187Z,84.00
2019-04-22T17:41:44.982Z,84.00
2019-04-22T17:44:25.073Z,84.40
2019-04-22T17:46:51.002Z,84.50
2019-04-22T17:49:48.685Z,84.90
2019-04-22T17:52:23.159Z,85.30
2019-04-22T17:54:50.259Z,85.60
2019-04-22T17:57:24.021Z,86.30
2019-04-22T17:59:56.732Z,87.30
2019-04-22T18:02:27.938Z,87.90
2019-04-22T18:04:49.593Z,89.20
2019-04-22T18:07:41.187Z,88.80
2019-04-22T18:10:27.427Z,89.10
2019-04-22T18:15:16.207Z,89.70
2019-04-22T18:17:54.198Z,90.10
2019-04-22T18:20:18.002Z,90.20
2019-04-22T18:22:45.940Z,90.30
2019-04-22T18:25:18.714Z,90.50
2019-04-22T18:28:15.058Z,90.80
2019-04-22T18:30:28.824Z,90.70
2019-04-22T18:33:07.571Z,90.80
2019-04-22T18:35:39.706Z,91.00
2019-04-22T18:38:28.042Z,91.10
2019-04-22T18:40:49.528Z,91.30
2019-04-22T18:43:26.197Z,91.40
2019-04-22T18:46:02.266Z,91.40
2019-04-22T18:48:25.529Z,91.60
2019-04-22T18:51:21.415Z,91.60
2019-04-22T18:54:01.838Z,91.70
2019-04-22T18:56:40.418Z,91.90
2019-04-22T18:58:53.803Z,92.00
2019-04-22T19:01:15.829Z,91.90
2019-04-22T19:03:55.188Z,91.90
2019-04-22T19:06:55.786Z,92.00
2019-04-22T19:09:15.344Z,92.00
2019-04-22T19:11:59.541Z,92.00
2019-04-22T19:14:20.053Z,92.10
2019-04-22T19:16:53.363Z,92.10
2019-04-22T19:21:55.948Z,92.10
2019-04-22T19:24:22.905Z,92.00
2019-04-22T19:29:33.698Z,91.90
2019-04-22T19:32:04.055Z,91.60
2019-04-22T19:34:36.737Z,91.50
2019-04-22T19:37:11.780Z,91.40
2019-04-22T19:39:50.118Z,91.40
2019-04-22T19:42:19.177Z,91.60
2019-04-22T19:44:46.649Z,91.60
2019-04-22T19:47:38.889Z,91.40
2019-04-22T19:49:58.412Z,91.50
2019-04-22T19:52:28.998Z,92.00
2019-04-22T19:55:01.513Z,92.50
2019-04-22T19:57:31.355Z,93.50
2019-04-22T20:00:03.882Z,94.00
2019-04-22T20:02:35.922Z,94.80
2019-04-22T20:05:27.929Z,95.20
2019-04-22T20:07:51.022Z,95.10
2019-04-22T20:10:32.697Z,95.50
2019-04-22T20:12:57.165Z,95.90
2019-04-22T20:15:26.795Z,96.30
2019-04-22T20:20:44.665Z,96.70
2019-04-22T20:23:05.292Z,96.70
2019-04-22T20:25:43.059Z,97.20
2019-04-22T20:28:20.596Z,96.90
2019-04-22T20:30:50.606Z,96.70
2019-04-22T20:33:25.632Z,97.00
2019-04-22T20:38:24.865Z,96.90
2019-04-22T20:41:02.700Z,96.60
2019-04-22T20:46:13.704Z,97.20
2019-04-22T20:48:43.906Z,97.60
2019-04-22T20:51:19.710Z,97.90
2019-04-22T20:53:48.027Z,97.70
2019-04-22T20:56:14.548Z,97.70
2019-04-22T20:58:51.775Z,97.70
2019-04-22T21:01:22.772Z,97.80
2019-04-22T21:03:44.078Z,97.90
2019-04-22T21:06:30.618Z,97.90
2019-04-22T21:08:59.129Z,98.20
2019-04-22T21:11:30.239Z,98.20
2019-04-22T21:14:04.388Z,98.30
2019-04-22T21:16:40.047Z,98.00
2019-04-22T21:19:18.681Z,98.00
2019-04-22T21:21:46.701Z,98.20
2019-04-22T21:24:09.246Z,98.20
2019-04-22T21:26:45.607Z,98.40
2019-04-22T21:29:18.633Z,98.50
2019-04-22T21:31:52.653Z,98.40
2019-04-22T21:34:20.331Z,98.30
2019-04-22T21:37:06.151Z,98.30
2019-04-22T21:39:28.918Z,98.50
2019-04-22T21:42:03.345Z,98.40
2019-04-22T21:44:35.145Z,98.60
2019-04-22T21:47:16.003Z,98.40
2019-04-22T21:49:42.907Z,98.30
2019-04-22T21:52:14.178Z,98.40
2019-04-22T21:54:46.719Z,98.60
2019-04-22T21:57:30.780Z,98.50
2019-04-22T22:00:09.722Z,98.80
2019-04-22T22:02:43.797Z,98.90
2019-04-22T22:05:00.141Z,99.20
2019-04-22T22:07:27.657Z,99.40
2019-04-22T22:10:16.925Z,99.40
2019-04-22T22:12:48.727Z,99.60
2019-04-22T22:15:22.661Z,99.60
2019-04-22T22:17:52.722Z,99.80
2019-04-22T22:20:22.736Z,99.90
2019-04-22T22:23:15.067Z,99.90
2019-04-22T22:25:28.507Z,99.90
2019-04-22T22:28:08.793Z,99.90
2019-04-22T22:30:50.683Z,99.90
2019-04-22T22:33:10.561Z,99.90
2019-04-22T22:35:45.741Z,99.90
2019-04-22T22:38:18.070Z,99.90
2019-04-22T22:40:36.256Z,99.90
2019-04-22T22:43:14.477Z,99.90
2019-04-22T22:45:43.778Z,99.90
2019-04-22T22:48:33.742Z,99.90
2019-04-22T22:51:06.095Z,99.90
2019-04-22T22:53:42.915Z,99.90
2019-04-22T22:56:10.729Z,99.90
2019-04-22T22:58:41.424Z,99.90
2019-04-22T23:01:09.559Z,99.90
2019-04-22T23:04:02.380Z,99.90
2019-04-22T23:06:26.523Z,99.90
2019-04-22T23:08:54.141Z,99.90
2019-04-22T23:11:34.881Z,99.90
2019-04-22T23:13:57.478Z,99.90
2019-04-22T23:16:17.634Z,99.90
2019-04-22T23:18:59.714Z,99.90
2019-04-22T23:21:39.125Z,99.90
2019-04-22T23:24:21.279Z,99.90
2019-04-22T23:27:07.883Z,99.90
2019-04-22T23:29:43.594Z,99.90
2019-04-22T23:32:18.468Z,99.90
2019-04-22T23:34:58.716Z,99.90
2019-04-22T23:37:21.800Z,99.90
2019-04-22T23:40:13.888Z,99.90
2019-04-22T23:42:33.718Z,99.90
2019-04-22T23:45:10.804Z,99.90
2019-04-22T23:47:38.119Z,99.90
2019-04-22T23:50:17.356Z,99.90
2019-04-22T23:52:50.843Z,99.90
2019-04-22T23:55:20.510Z,99.90
2019-04-22T23:58:02.671Z,99.90
